createdAt,value
2023-04-14T00:00:54.138Z,92.60
2023-04-14T00:03:23.550Z,92.45
2023-04-14T00:05:52.023Z,92.50
2023-04-14T00:08:20.859Z,92.20
2023-04-14T00:10:49.920Z,92.04
2023-04-14T00:13:18.194Z,91.97
2023-04-14T00:15:49.145Z,92.09
2023-04-14T00:18:18.228Z,92.08
2023-04-14T00:20:47.608Z,91.96
2023-04-14T00:23:16.638Z,91.86
2023-04-14T00:25:45.641Z,91.98
2023-04-14T00:28:13.921Z,92.05
2023-04-14T00:30:47.131Z,92.08
2023-04-14T00:33:16.913Z,92.24
2023-04-14T00:35:45.045Z,92.22
2023-04-14T00:38:13.905Z,92.36
2023-04-14T00:40:43.515Z,92.68
2023-04-14T00:43:11.693Z,92.64
2023-04-14T00:45:44.397Z,92.59
2023-04-14T00:48:15.207Z,92.70
2023-04-14T00:50:44.282Z,92.57
2023-04-14T00:53:13.012Z,92.60
2023-04-14T00:55:41.898Z,92.52
2023-04-14T00:58:10.589Z,92.51
2023-04-14T01:00:39.888Z,92.59
2023-04-14T01:03:10.231Z,92.56
2023-04-14T01:05:39.936Z,92.52
2023-04-14T01:08:08.217Z,92.38
2023-04-14T01:10:41.513Z,92.43
2023-04-14T01:13:17.110Z,92.53
2023-04-14T01:15:59.218Z,92.43
2023-04-14T01:18:40.936Z,92.49
2023-04-14T01:21:18.673Z,92.41
2023-04-14T01:24:13.517Z,92.74
2023-04-14T01:26:43.336Z,93.00
2023-04-14T01:29:27.372Z,92.93
2023-04-14T01:32:06.412Z,93.18
2023-04-14T01:34:45.033Z,93.06
2023-04-14T01:37:15.205Z,93.02
2023-04-14T01:39:48.591Z,93.32
2023-04-14T01:42:19.549Z,93.34
2023-04-14T01:44:48.512Z,93.23
2023-04-14T01:47:17.493Z,93.10
2023-04-14T01:49:45.917Z,93.11
2023-04-14T01:52:14.142Z,93.10
2023-04-14T01:54:42.764Z,93.38
2023-04-14T01:57:12.027Z,93.74
2023-04-14T01:59:41.846Z,93.93
2023-04-14T02:02:11.679Z,94.02
2023-04-14T02:04:40.047Z,94.19
2023-04-14T02:07:08.731Z,94.27
2023-04-14T02:09:37.004Z,94.08
2023-04-14T02:12:05.652Z,93.80
2023-04-14T02:14:34.024Z,93.67
2023-04-14T02:17:03.308Z,93.40
2023-04-14T02:19:32.079Z,93.52
2023-04-14T02:22:03.371Z,93.76
2023-04-14T02:24:32.356Z,93.78
2023-04-14T02:27:10.645Z,93.85
2023-04-14T02:29:41.270Z,93.86
2023-04-14T02:32:14.972Z,93.62
2023-04-14T02:35:17.341Z,93.49
2023-04-14T02:37:49.030Z,93.74
2023-04-14T02:40:20.333Z,93.91
2023-04-14T02:42:53.237Z,93.70
2023-04-14T02:45:23.009Z,93.85
2023-04-14T02:48:00.011Z,93.82
2023-04-14T02:50:29.028Z,93.64
2023-04-14T02:53:11.418Z,93.46
2023-04-14T02:55:41.646Z,93.28
2023-04-14T02:58:09.830Z,93.29
2023-04-14T03:00:40.256Z,93.14
2023-04-14T03:03:11.964Z,92.76
2023-04-14T03:05:43.593Z,92.51
2023-04-14T03:08:13.500Z,92.36
2023-04-14T03:10:48.181Z,92.37
2023-04-14T03:13:18.444Z,92.41
2023-04-14T03:15:47.122Z,92.51
2023-04-14T03:18:15.965Z,92.89
2023-04-14T03:20:45.988Z,93.05
2023-04-14T03:23:14.633Z,93.57
2023-04-14T03:25:49.776Z,93.49
2023-04-14T03:28:24.926Z,93.70
2023-04-14T03:30:54.312Z,93.58
2023-04-14T03:33:28.855Z,93.88
2023-04-14T03:35:58.281Z,93.81
2023-04-14T03:38:28.118Z,93.90
2023-04-14T03:41:00.121Z,93.72
2023-04-14T03:43:29.661Z,93.54
2023-04-14T03:46:05.516Z,93.47
2023-04-14T03:48:35.611Z,93.52
2023-04-14T03:51:04.405Z,93.53
2023-04-14T03:53:34.781Z,93.22
2023-04-14T03:56:03.214Z,93.50
2023-04-14T03:58:34.677Z,93.53
2023-04-14T04:01:04.073Z,93.50
2023-04-14T04:03:35.644Z,93.25
2023-04-14T04:06:04.640Z,93.07
2023-04-14T04:08:32.806Z,93.28
2023-04-14T04:11:01.088Z,93.52
2023-04-14T04:13:29.986Z,93.44
2023-04-14T04:15:59.049Z,93.22
2023-04-14T04:18:28.596Z,93.14
2023-04-14T04:20:56.968Z,92.71
2023-04-14T04:23:26.073Z,92.86
2023-04-14T04:25:55.077Z,92.87
2023-04-14T04:28:44.276Z,92.77
2023-04-14T04:31:13.109Z,92.80
2023-04-14T04:33:42.017Z,92.95
2023-04-14T04:36:13.585Z,93.09
2023-04-14T04:38:43.507Z,93.05
2023-04-14T04:41:25.424Z,93.40
2023-04-14T04:43:54.848Z,93.24
2023-04-14T04:46:51.725Z,93.22
2023-04-14T04:49:21.000Z,92.95
2023-04-14T04:51:49.753Z,92.73
2023-04-14T04:54:19.439Z,92.45
2023-04-14T04:56:48.734Z,92.27
2023-04-14T04:59:17.258Z,92.37
2023-04-14T05:01:45.865Z,92.24
2023-04-14T05:04:14.502Z,92.37
2023-04-14T05:06:42.986Z,92.10
2023-04-14T05:09:12.962Z,92.24
2023-04-14T05:11:42.219Z,92.32
2023-04-14T05:14:10.498Z,92.25
2023-04-14T05:16:38.702Z,92.38
2023-04-14T05:19:11.762Z,92.56
2023-04-14T05:21:42.425Z,92.35
2023-04-14T05:24:10.677Z,92.07
2023-04-14T05:29:11.848Z,91.44
2023-04-14T05:31:40.208Z,91.49
2023-04-14T05:34:08.752Z,91.39
2023-04-14T05:36:36.878Z,91.11
2023-04-14T05:39:05.685Z,90.96
2023-04-14T05:41:37.101Z,90.98
2023-04-14T05:44:05.518Z,91.00
2023-04-14T05:46:34.355Z,91.28
2023-04-14T05:49:05.050Z,91.31
2023-04-14T05:51:33.553Z,91.38
2023-04-14T05:54:07.747Z,91.06
2023-04-14T05:56:36.836Z,90.81
2023-04-14T05:59:05.108Z,90.72
2023-04-14T06:01:33.972Z,90.95
2023-04-14T06:04:04.221Z,90.76
2023-04-14T06:06:32.995Z,90.52
2023-04-14T06:09:01.822Z,90.59
2023-04-14T06:11:30.847Z,90.83
2023-04-14T06:14:02.179Z,90.90
2023-04-14T06:16:31.204Z,90.84
2023-04-14T06:19:04.345Z,90.37
2023-04-14T06:21:33.027Z,90.51
2023-04-14T06:24:01.497Z,90.44
2023-04-14T06:26:31.485Z,90.45
2023-04-14T06:29:01.211Z,90.14
2023-04-14T06:31:30.439Z,90.06
2023-04-14T06:34:00.758Z,90.00
2023-04-14T06:36:30.016Z,90.02
2023-04-14T06:38:58.688Z,90.37
2023-04-14T06:41:27.528Z,90.30
2023-04-14T06:45:11.342Z,90.26
2023-04-14T06:47:41.017Z,90.17
2023-04-14T06:50:14.672Z,90.12
2023-04-14T06:52:56.326Z,90.10
2023-04-14T06:55:28.835Z,89.64
2023-04-14T06:57:58.016Z,89.55
2023-04-14T07:00:27.652Z,89.59
2023-04-14T07:03:17.467Z,89.58
2023-04-14T07:06:22.253Z,89.69
2023-04-14T07:08:56.081Z,89.10
2023-04-14T07:11:24.616Z,88.49
2023-04-14T07:13:54.610Z,88.59
2023-04-14T07:16:26.104Z,88.59
2023-04-14T07:18:56.619Z,88.71
2023-04-14T07:21:24.952Z,89.18
2023-04-14T07:23:55.016Z,89.49
2023-04-14T07:26:23.587Z,89.59
2023-04-14T07:28:52.199Z,89.23
2023-04-14T07:31:22.591Z,89.38
2023-04-14T07:33:51.883Z,89.18
2023-04-14T07:36:20.158Z,89.25
2023-04-14T07:38:51.628Z,89.03
2023-04-14T07:41:20.158Z,88.91
2023-04-14T07:43:48.543Z,88.89
2023-04-14T07:46:17.753Z,88.95
2023-04-14T07:48:46.067Z,89.04
2023-04-14T07:51:15.292Z,89.09
2023-04-14T07:53:45.424Z,89.59
2023-04-14T07:56:13.803Z,89.82
2023-04-14T07:58:42.996Z,90.04
2023-04-14T08:01:14.405Z,90.55
2023-04-14T08:03:45.364Z,90.48
2023-04-14T08:06:14.013Z,90.48
2023-04-14T08:08:43.496Z,90.26
2023-04-14T08:11:12.010Z,90.11
2023-04-14T08:13:40.944Z,89.75
2023-04-14T08:16:09.570Z,89.03
2023-04-14T08:18:39.964Z,89.18
2023-04-14T08:21:08.304Z,89.30
2023-04-14T08:23:39.660Z,89.38
2023-04-14T08:26:08.448Z,89.18
2023-04-14T08:28:37.550Z,89.51
2023-04-14T08:31:05.940Z,89.68
2023-04-14T08:33:35.544Z,89.70
2023-04-14T08:36:04.845Z,88.84
2023-04-14T08:38:36.856Z,89.05
2023-04-14T08:41:07.415Z,88.78
2023-04-14T08:43:36.563Z,88.34
2023-04-14T08:46:07.359Z,87.84
2023-04-14T08:48:36.644Z,88.17
2023-04-14T08:51:13.973Z,88.35
2023-04-14T08:53:45.964Z,87.57
2023-04-14T08:56:18.650Z,87.60
2023-04-14T08:58:47.592Z,87.25
2023-04-14T09:01:16.812Z,87.22
2023-04-14T09:03:46.755Z,87.21
2023-04-14T09:06:16.072Z,87.03
2023-04-14T09:08:48.346Z,86.89
2023-04-14T09:11:16.912Z,86.83
2023-04-14T09:13:45.630Z,86.67
2023-04-14T09:16:13.826Z,86.17
2023-04-14T09:18:44.493Z,85.83
2023-04-14T09:21:50.216Z,86.15
2023-04-14T09:24:06.269Z,85.30
2023-04-14T09:26:35.153Z,84.66
2023-04-14T09:29:03.881Z,85.05
2023-04-14T09:31:33.937Z,85.19
2023-04-14T09:34:02.799Z,85.35
2023-04-14T09:36:31.479Z,85.57
2023-04-14T09:38:59.731Z,85.82
2023-04-14T09:41:28.148Z,85.73
2023-04-14T09:43:56.338Z,85.99
2023-04-14T09:46:25.542Z,86.17
2023-04-14T09:48:55.289Z,85.57
2023-04-14T09:51:30.299Z,85.80
2023-04-14T09:54:03.100Z,85.76
2023-04-14T09:56:35.089Z,85.78
2023-04-14T09:59:04.339Z,85.83
2023-04-14T10:01:34.426Z,85.95
2023-04-14T10:04:03.078Z,85.87
2023-04-14T10:06:32.382Z,85.89
2023-04-14T10:09:01.686Z,85.79
2023-04-14T10:11:32.976Z,86.06
2023-04-14T10:14:04.271Z,85.64
2023-04-14T10:16:34.162Z,85.74
2023-04-14T10:19:03.864Z,85.90
2023-04-14T10:21:36.627Z,86.01
2023-04-14T10:24:04.811Z,86.31
2023-04-14T10:26:36.078Z,86.48
2023-04-14T10:29:06.299Z,86.44
2023-04-14T10:31:37.098Z,86.36
2023-04-14T10:34:12.360Z,86.54
2023-04-14T10:36:41.764Z,86.10
2023-04-14T10:39:11.173Z,85.95
2023-04-14T10:41:49.905Z,85.59
2023-04-14T10:44:28.786Z,85.41
2023-04-14T10:46:57.677Z,85.46
2023-04-14T10:49:37.159Z,85.72
2023-04-14T10:52:07.263Z,85.95
2023-04-14T10:55:09.571Z,86.25
2023-04-14T10:57:42.554Z,86.39
2023-04-14T11:00:27.775Z,86.29
2023-04-14T11:03:08.494Z,86.35
2023-04-14T11:05:37.129Z,86.35
2023-04-14T11:08:17.517Z,86.41
2023-04-14T11:10:51.740Z,86.55
2023-04-14T11:13:20.429Z,86.29
2023-04-14T11:15:57.308Z,85.89
2023-04-14T11:18:30.187Z,85.71
2023-04-14T11:21:06.362Z,85.37
2023-04-14T11:23:36.502Z,84.57
2023-04-14T11:26:12.410Z,85.02
2023-04-14T11:28:46.328Z,85.52
2023-04-14T11:31:15.762Z,85.99
2023-04-14T11:33:44.843Z,86.00
2023-04-14T11:36:16.709Z,85.90
2023-04-14T11:38:46.222Z,86.08
2023-04-14T11:41:15.377Z,86.50
2023-04-14T11:43:47.134Z,86.88
2023-04-14T11:46:16.641Z,87.07
2023-04-14T11:48:46.324Z,86.92
2023-04-14T11:51:14.660Z,87.25
2023-04-14T11:53:43.695Z,87.36
2023-04-14T11:56:13.266Z,86.85
2023-04-14T11:58:41.738Z,86.74
2023-04-14T12:01:14.486Z,87.14
2023-04-14T12:03:45.147Z,87.31
2023-04-14T12:06:13.456Z,87.10
2023-04-14T12:08:41.931Z,86.59
2023-04-14T12:11:16.606Z,86.25
2023-04-14T12:13:46.687Z,85.90
2023-04-14T12:16:15.925Z,85.66
2023-04-14T12:18:48.387Z,85.57
2023-04-14T12:21:19.290Z,85.96
2023-04-14T12:23:50.715Z,86.41
2023-04-14T12:26:25.830Z,86.75
2023-04-14T12:28:57.876Z,87.25
2023-04-14T12:31:31.793Z,86.95
2023-04-14T12:34:02.204Z,86.96
2023-04-14T12:36:48.177Z,86.88
2023-04-14T12:39:27.618Z,86.64
2023-04-14T12:41:58.790Z,87.04
2023-04-14T12:44:27.193Z,87.05
2023-04-14T12:46:56.429Z,86.84
2023-04-14T12:49:37.536Z,86.74
2023-04-14T12:52:08.413Z,86.10
2023-04-14T12:54:52.540Z,85.01
2023-04-14T12:57:22.099Z,84.26
2023-04-14T12:59:50.777Z,84.02
2023-04-14T13:02:19.205Z,84.21
2023-04-14T13:04:47.785Z,84.63
2023-04-14T13:07:16.163Z,84.51
2023-04-14T13:09:44.400Z,83.75
2023-04-14T13:12:12.899Z,83.85
2023-04-14T13:14:41.925Z,84.38
2023-04-14T13:17:10.626Z,84.00
2023-04-14T13:19:38.987Z,84.62
2023-04-14T13:22:09.414Z,84.85
2023-04-14T13:24:38.139Z,84.73
2023-04-14T13:27:07.038Z,84.97
2023-04-14T13:29:41.092Z,84.92
2023-04-14T13:32:11.312Z,84.91
2023-04-14T13:34:40.135Z,85.22
2023-04-14T13:37:08.328Z,84.95
2023-04-14T13:39:36.920Z,85.18
2023-04-14T13:42:06.063Z,84.74
2023-04-14T13:44:35.744Z,84.81
2023-04-14T13:47:03.995Z,85.02
2023-04-14T13:49:32.281Z,85.30
2023-04-14T13:52:00.667Z,85.27
2023-04-14T13:54:29.051Z,85.33
2023-04-14T13:56:57.657Z,85.42
2023-04-14T13:59:25.940Z,85.74
2023-04-14T14:01:54.964Z,86.05
2023-04-14T14:04:24.994Z,86.04
2023-04-14T14:06:53.340Z,86.19
2023-04-14T14:09:21.698Z,86.25
2023-04-14T14:11:49.887Z,86.26
2023-04-14T14:14:18.481Z,86.27
2023-04-14T14:16:47.082Z,86.54
2023-04-14T14:19:18.384Z,86.78
2023-04-14T14:21:47.601Z,86.80
2023-04-14T14:24:16.191Z,87.15
2023-04-14T14:26:44.357Z,87.50
2023-04-14T14:29:13.066Z,87.83
2023-04-14T14:31:41.504Z,87.99
2023-04-14T14:34:09.844Z,88.28
2023-04-14T14:36:38.132Z,88.53
2023-04-14T14:39:10.075Z,88.35
2023-04-14T14:41:38.449Z,88.60
2023-04-14T14:44:07.462Z,88.59
2023-04-14T14:46:36.416Z,88.76
2023-04-14T14:49:05.670Z,88.53
2023-04-14T14:51:34.130Z,88.76
2023-04-14T14:54:10.346Z,89.05
2023-04-14T14:56:38.847Z,89.23
2023-04-14T14:59:08.621Z,89.41
2023-04-14T15:01:37.174Z,89.47
2023-04-14T15:04:06.773Z,89.43
2023-04-14T15:06:36.501Z,89.28
2023-04-14T15:09:05.721Z,89.26
2023-04-14T15:11:38.985Z,89.34
2023-04-14T15:14:07.782Z,89.50
2023-04-14T15:16:37.292Z,89.59
2023-04-14T15:19:15.509Z,89.55
2023-04-14T15:21:45.660Z,89.43
2023-04-14T15:24:13.930Z,89.28
2023-04-14T15:26:48.366Z,89.59
2023-04-14T15:29:19.443Z,89.37
2023-04-14T15:31:47.611Z,89.12
2023-04-14T15:34:16.079Z,88.71
2023-04-14T15:36:44.869Z,88.62
2023-04-14T15:39:13.014Z,88.65
2023-04-14T15:41:44.979Z,88.98
2023-04-14T15:44:13.803Z,88.84
2023-04-14T15:46:42.095Z,88.57
2023-04-14T15:49:11.478Z,88.64
2023-04-14T15:51:41.235Z,88.66
2023-04-14T15:54:09.781Z,88.81
2023-04-14T15:56:38.498Z,88.72
2023-04-14T15:59:07.169Z,88.48
2023-04-14T16:01:35.642Z,88.63
2023-04-14T16:04:04.810Z,88.89
2023-04-14T16:06:36.440Z,88.71
2023-04-14T16:09:05.122Z,88.80
2023-04-14T16:11:36.481Z,88.72
2023-04-14T16:14:08.821Z,88.47
2023-04-14T16:16:38.636Z,88.52
2023-04-14T16:19:07.017Z,88.34
2023-04-14T16:21:35.744Z,87.69
2023-04-14T16:24:04.244Z,87.34
2023-04-14T16:26:33.305Z,87.37
2023-04-14T16:29:01.909Z,87.50
2023-04-14T16:31:31.576Z,87.58
2023-04-14T16:34:00.235Z,87.29
2023-04-14T16:36:29.289Z,86.97
2023-04-14T16:38:57.574Z,87.16
2023-04-14T16:41:26.165Z,86.72
2023-04-14T16:43:54.446Z,86.75
2023-04-14T16:46:24.312Z,86.60
2023-04-14T16:48:53.534Z,86.24
2023-04-14T16:51:28.028Z,86.21
2023-04-14T16:53:56.774Z,86.51
2023-04-14T16:56:25.014Z,86.43
2023-04-14T16:58:53.321Z,86.61
2023-04-14T17:01:21.777Z,86.33
2023-04-14T17:03:50.706Z,85.94
2023-04-14T17:06:19.181Z,86.09
2023-04-14T17:08:48.618Z,86.39
2023-04-14T17:11:16.861Z,86.10
2023-04-14T17:13:45.036Z,85.88
2023-04-14T17:16:18.889Z,85.96
2023-04-14T17:18:48.388Z,86.14
2023-04-14T17:21:16.593Z,85.94
2023-04-14T17:23:55.488Z,86.01
2023-04-14T17:26:24.856Z,86.01
2023-04-14T17:28:53.051Z,85.71
2023-04-14T17:31:21.324Z,86.05
2023-04-14T17:33:49.908Z,85.78
2023-04-14T17:36:18.503Z,85.23
2023-04-14T17:38:47.414Z,84.92
2023-04-14T17:41:16.205Z,85.17
2023-04-14T17:43:48.559Z,85.21
2023-04-14T17:46:17.805Z,85.55
2023-04-14T17:48:46.554Z,85.84
2023-04-14T17:51:15.508Z,86.04
2023-04-14T17:53:47.855Z,85.89
2023-04-14T17:56:20.602Z,86.14
2023-04-14T17:58:54.163Z,86.07
2023-04-14T18:01:24.284Z,85.99
2023-04-14T18:03:52.661Z,85.78
2023-04-14T18:06:21.247Z,85.62
2023-04-14T18:08:51.663Z,85.48
2023-04-14T18:11:21.252Z,85.44
2023-04-14T18:13:49.548Z,84.96
2023-04-14T18:16:22.261Z,85.34
2023-04-14T18:18:56.519Z,85.19
2023-04-14T18:21:25.002Z,85.01
2023-04-14T18:26:27.538Z,85.70
2023-04-14T18:28:57.445Z,85.39
2023-04-14T18:31:25.586Z,85.53
2023-04-14T18:34:14.667Z,85.82
2023-04-14T18:36:44.147Z,86.23
2023-04-14T18:39:12.547Z,86.26
2023-04-14T18:41:40.826Z,86.16
2023-04-14T18:44:09.818Z,86.12
2023-04-14T18:46:38.316Z,86.15
2023-04-14T18:49:06.815Z,86.47
2023-04-14T18:51:35.799Z,86.41
2023-04-14T18:54:04.217Z,86.94
2023-04-14T18:56:33.855Z,86.86
2023-04-14T18:59:02.857Z,86.80
2023-04-14T19:01:33.566Z,86.59
2023-04-14T19:04:03.216Z,86.27
2023-04-14T19:06:32.141Z,85.63
2023-04-14T19:09:04.709Z,85.13
2023-04-14T19:11:39.028Z,85.26
2023-04-14T19:14:08.946Z,85.69
2023-04-14T19:16:37.118Z,85.16
2023-04-14T19:19:06.538Z,84.81
2023-04-14T19:21:34.691Z,85.21
2023-04-14T19:24:03.095Z,85.32
2023-04-14T19:26:31.474Z,84.85
2023-04-14T19:29:01.162Z,85.17
2023-04-14T19:31:30.134Z,85.32
2023-04-14T19:33:58.813Z,85.44
2023-04-14T19:36:27.749Z,85.17
2023-04-14T19:38:56.411Z,85.83
2023-04-14T19:41:25.356Z,85.65
2023-04-14T19:43:54.560Z,86.24
2023-04-14T19:46:23.001Z,86.11
2023-04-14T19:48:51.915Z,86.39
2023-04-14T19:51:20.320Z,86.40
2023-04-14T19:53:52.088Z,86.45
2023-04-14T19:56:22.815Z,86.82
2023-04-14T19:58:51.900Z,86.51
2023-04-14T20:01:21.310Z,86.44
2023-04-14T20:04:06.374Z,86.92
2023-04-14T20:06:40.331Z,86.87
2023-04-14T20:09:08.918Z,86.50
2023-04-14T20:11:37.389Z,86.23
2023-04-14T20:14:06.066Z,85.01
2023-04-14T20:16:40.815Z,84.72
2023-04-14T20:19:09.585Z,84.69
2023-04-14T20:21:38.767Z,84.92
2023-04-14T20:24:07.268Z,84.73
2023-04-14T20:26:42.794Z,85.01
2023-04-14T20:29:12.237Z,84.78
2023-04-14T20:31:42.856Z,85.04
2023-04-14T20:34:12.230Z,85.57
2023-04-14T20:36:40.604Z,85.48
2023-04-14T20:39:09.142Z,85.55
2023-04-14T20:41:37.922Z,85.12
2023-04-14T20:44:06.512Z,85.16
2023-04-14T20:46:34.913Z,85.82
2023-04-14T20:49:04.401Z,85.63
2023-04-14T20:51:34.064Z,85.94
2023-04-14T20:54:02.912Z,85.95
2023-04-14T20:56:35.086Z,86.14
2023-04-14T20:59:04.003Z,86.38
2023-04-14T21:01:32.589Z,86.45
2023-04-14T21:04:00.997Z,86.07
2023-04-14T21:06:32.427Z,85.97
2023-04-14T21:09:02.168Z,85.93
2023-04-14T21:11:31.960Z,85.68
2023-04-14T21:15:29.633Z,85.70
2023-04-14T21:16:49.707Z,85.91
2023-04-14T21:19:19.669Z,85.48
2023-04-14T21:21:52.987Z,85.56
2023-04-14T21:24:21.442Z,85.44
2023-04-14T21:26:49.701Z,85.37
2023-04-14T21:29:18.278Z,85.39
2023-04-14T21:31:47.282Z,85.44
2023-04-14T21:34:15.519Z,85.35
2023-04-14T21:36:47.337Z,85.21
2023-04-14T21:39:15.480Z,85.45
2023-04-14T21:41:43.963Z,85.69
2023-04-14T21:44:13.314Z,85.61
2023-04-14T21:46:42.243Z,85.42
2023-04-14T21:49:11.548Z,85.73
2023-04-14T21:51:39.622Z,85.90
2023-04-14T21:54:08.428Z,86.00
2023-04-14T21:56:37.721Z,85.85
2023-04-14T21:59:06.660Z,85.85
2023-04-14T22:01:34.832Z,86.04
2023-04-14T22:04:03.899Z,86.11
2023-04-14T22:06:34.225Z,86.00
2023-04-14T22:09:10.230Z,85.91
2023-04-14T22:11:38.897Z,85.84
2023-04-14T22:14:07.191Z,86.04
2023-04-14T22:16:37.963Z,86.07
2023-04-14T22:19:09.221Z,86.09
2023-04-14T22:21:38.038Z,86.03
2023-04-14T22:24:07.426Z,86.18
2023-04-14T22:26:36.540Z,86.55
2023-04-14T22:29:05.014Z,87.00
2023-04-14T22:31:33.526Z,86.99
2023-04-14T22:34:02.816Z,87.22
2023-04-14T22:36:30.972Z,87.29
2023-04-14T22:38:59.629Z,87.08
2023-04-14T22:41:28.387Z,87.14
2023-04-14T22:43:56.946Z,86.87
2023-04-14T22:46:26.509Z,86.78
2023-04-14T22:48:57.102Z,86.61
2023-04-14T22:51:25.542Z,86.37
2023-04-14T22:53:53.910Z,86.22
2023-04-14T22:56:24.787Z,86.40
2023-04-14T22:58:53.602Z,86.40
2023-04-14T23:01:24.610Z,86.32
2023-04-14T23:03:54.912Z,86.34
2023-04-14T23:06:24.399Z,86.13
2023-04-14T23:08:58.722Z,86.46
2023-04-14T23:11:29.955Z,86.51
2023-04-14T23:13:58.112Z,86.43
2023-04-14T23:16:28.917Z,86.54
2023-04-14T23:19:07.079Z,86.47
2023-04-14T23:21:35.442Z,86.29
2023-04-14T23:24:05.672Z,86.50
2023-04-14T23:26:41.521Z,86.60
2023-04-14T23:29:10.834Z,86.75
2023-04-14T23:31:39.272Z,86.88
2023-04-14T23:34:13.122Z,86.91
2023-04-14T23:36:42.736Z,87.05
2023-04-14T23:39:10.910Z,86.67
2023-04-14T23:41:41.659Z,86.86
2023-04-14T23:44:09.827Z,86.56
2023-04-14T23:46:39.441Z,86.59
2023-04-14T23:49:23.728Z,86.79
2023-04-14T23:51:53.200Z,86.67
2023-04-14T23:54:21.471Z,86.86
2023-04-14T23:56:49.856Z,86.83
2023-04-14T23:59:19.006Z,86.79
